sensor_id;sensor_type;location;lat;lon;timestamp;pressure;altitude;pressure_sealevel;temperature;humidity
54600;BME280;40500;51.084;16.958;2023-06-26T00:00:38;100395.61;;;15.85;100.00
54600;BME280;40500;51.084;16.958;2023-06-26T00:03:09;100397.33;;;15.81;100.00
54600;BME280;40500;51.084;16.958;2023-06-26T00:05:44;100391.30;;;15.77;100.00
54600;BME280;40500;51.084;16.958;2023-06-26T00:08:15;100390.55;;;15.73;100.00
54600;BME280;40500;51.084;16.958;2023-06-26T00:10:45;100392.49;;;15.68;100.00
54600;BME280;40500;51.084;16.958;2023-06-26T00:13:16;100392.13;;;15.63;100.00
54600;BME280;40500;51.084;16.958;2023-06-26T00:15:46;100392.13;;;15.59;100.00
54600;BME280;40500;51.084;16.958;2023-06-26T00:18:17;100389.99;;;15.54;100.00
54600;BME280;40500;51.084;16.958;2023-06-26T00:20:47;100395.91;;;15.52;100.00
54600;BME280;40500;51.084;16.958;2023-06-26T00:23:18;100393.00;;;15.54;100.00
54600;BME280;40500;51.084;16.958;2023-06-26T00:25:49;100395.20;;;15.57;100.00
54600;BME280;40500;51.084;16.958;2023-06-26T00:28:19;100393.35;;;15.54;100.00
54600;BME280;40500;51.084;16.958;2023-06-26T00:30:50;100387.95;;;15.48;100.00
54600;BME280;40500;51.084;16.958;2023-06-26T00:33:20;100388.27;;;15.43;100.00
54600;BME280;40500;51.084;16.958;2023-06-26T00:35:52;100389.50;;;15.39;100.00
54600;BME280;40500;51.084;16.958;2023-06-26T00:38:22;100388.70;;;15.36;100.00
54600;BME280;40500;51.084;16.958;2023-06-26T00:40:53;100384.94;;;15.33;100.00
54600;BME280;40500;51.084;16.958;2023-06-26T00:43:25;100385.39;;;15.31;100.00
54600;BME280;40500;51.084;16.958;2023-06-26T00:45:55;100382.29;;;15.28;100.00
54600;BME280;40500;51.084;16.958;2023-06-26T00:48:26;100380.00;;;15.28;100.00
54600;BME280;40500;51.084;16.958;2023-06-26T00:50:57;100377.23;;;15.31;100.00
54600;BME280;40500;51.084;16.958;2023-06-26T00:53:28;100379.21;;;15.35;100.00
54600;BME280;40500;51.084;16.958;2023-06-26T00:55:58;100373.11;;;15.38;100.00
54600;BME280;40500;51.084;16.958;2023-06-26T00:58:31;100373.66;;;15.42;100.00
54600;BME280;40500;51.084;16.958;2023-06-26T01:01:01;100375.25;;;15.47;100.00
54600;BME280;40500;51.084;16.958;2023-06-26T01:03:32;100373.69;;;15.51;100.00
54600;BME280;40500;51.084;16.958;2023-06-26T01:06:03;100374.79;;;15.51;100.00
54600;BME280;40500;51.084;16.958;2023-06-26T01:08:34;100365.95;;;15.46;100.00
54600;BME280;40500;51.084;16.958;2023-06-26T01:11:04;100369.96;;;15.37;100.00
54600;BME280;40500;51.084;16.958;2023-06-26T01:13:35;100372.20;;;15.29;100.00
54600;BME280;40500;51.084;16.958;2023-06-26T01:16:07;100372.22;;;15.24;100.00
54600;BME280;40500;51.084;16.958;2023-06-26T01:18:40;100371.21;;;15.17;100.00
54600;BME280;40500;51.084;16.958;2023-06-26T01:21:13;100369.11;;;15.12;100.00
54600;BME280;40500;51.084;16.958;2023-06-26T01:23:54;100368.55;;;15.08;100.00
54600;BME280;40500;51.084;16.958;2023-06-26T01:26:30;100367.43;;;15.05;100.00
54600;BME280;40500;51.084;16.958;2023-06-26T01:29:07;100368.50;;;15.04;100.00
54600;BME280;40500;51.084;16.958;2023-06-26T01:31:40;100370.50;;;15.02;100.00
54600;BME280;40500;51.084;16.958;2023-06-26T01:34:12;100367.71;;;15.01;100.00
54600;BME280;40500;51.084;16.958;2023-06-26T01:36:43;100364.20;;;15.01;100.00
54600;BME280;40500;51.084;16.958;2023-06-26T01:39:18;100369.50;;;14.95;100.00
54600;BME280;40500;51.084;16.958;2023-06-26T01:41:49;100362.91;;;14.87;100.00
54600;BME280;40500;51.084;16.958;2023-06-26T01:44:26;100361.73;;;14.81;100.00
54600;BME280;40500;51.084;16.958;2023-06-26T01:47:02;100358.29;;;14.78;100.00
54600;BME280;40500;51.084;16.958;2023-06-26T01:49:40;100361.49;;;14.77;100.00
54600;BME280;40500;51.084;16.958;2023-06-26T01:52:21;100355.16;;;14.77;100.00
54600;BME280;40500;51.084;16.958;2023-06-26T01:54:58;100360.66;;;14.75;100.00
54600;BME280;40500;51.084;16.958;2023-06-26T01:57:31;100360.95;;;14.72;100.00
54600;BME280;40500;51.084;16.958;2023-06-26T02:00:04;100353.89;;;14.67;100.00
54600;BME280;40500;51.084;16.958;2023-06-26T02:02:43;100349.23;;;14.64;100.00
54600;BME280;40500;51.084;16.958;2023-06-26T02:05:15;100350.36;;;14.62;100.00
54600;BME280;40500;51.084;16.958;2023-06-26T02:07:46;100348.63;;;14.61;100.00
54600;BME280;40500;51.084;16.958;2023-06-26T02:10:17;100348.36;;;14.58;100.00
54600;BME280;40500;51.084;16.958;2023-06-26T02:12:47;100342.33;;;14.53;100.00
54600;BME280;40500;51.084;16.958;2023-06-26T02:15:18;100345.82;;;14.49;100.00
54600;BME280;40500;51.084;16.958;2023-06-26T02:17:48;100344.97;;;14.48;100.00
54600;BME280;40500;51.084;16.958;2023-06-26T02:20:19;100348.34;;;14.48;100.00
54600;BME280;40500;51.084;16.958;2023-06-26T02:22:49;100349.96;;;14.47;100.00
54600;BME280;40500;51.084;16.958;2023-06-26T02:25:21;100351.28;;;14.44;100.00
54600;BME280;40500;51.084;16.958;2023-06-26T02:27:54;100346.30;;;14.40;100.00
54600;BME280;40500;51.084;16.958;2023-06-26T02:30:24;100348.02;;;14.36;100.00
54600;BME280;40500;51.084;16.958;2023-06-26T02:32:55;100348.13;;;14.32;100.00
54600;BME280;40500;51.084;16.958;2023-06-26T02:35:26;100349.67;;;14.28;100.00
54600;BME280;40500;51.084;16.958;2023-06-26T02:37:56;100348.61;;;14.23;100.00
54600;BME280;40500;51.084;16.958;2023-06-26T02:40:27;100348.14;;;14.21;100.00
54600;BME280;40500;51.084;16.958;2023-06-26T02:42:58;100352.08;;;14.19;100.00
54600;BME280;40500;51.084;16.958;2023-06-26T02:45:32;100353.98;;;14.19;100.00
54600;BME280;40500;51.084;16.958;2023-06-26T02:48:05;100354.58;;;14.18;100.00
54600;BME280;40500;51.084;16.958;2023-06-26T02:50:37;100353.71;;;14.17;100.00
54600;BME280;40500;51.084;16.958;2023-06-26T02:53:15;100353.55;;;14.17;100.00
54600;BME280;40500;51.084;16.958;2023-06-26T02:55:47;100352.39;;;14.15;100.00
54600;BME280;40500;51.084;16.958;2023-06-26T02:58:19;100348.77;;;14.12;100.00
54600;BME280;40500;51.084;16.958;2023-06-26T03:00:50;100349.14;;;14.12;100.00
54600;BME280;40500;51.084;16.958;2023-06-26T03:03:23;100350.70;;;14.13;100.00
54600;BME280;40500;51.084;16.958;2023-06-26T03:05:55;100349.77;;;14.14;100.00
54600;BME280;40500;51.084;16.958;2023-06-26T03:08:27;100348.09;;;14.17;100.00
54600;BME280;40500;51.084;16.958;2023-06-26T03:10:58;100346.77;;;14.20;100.00
54600;BME280;40500;51.084;16.958;2023-06-26T03:13:29;100351.20;;;14.24;100.00
54600;BME280;40500;51.084;16.958;2023-06-26T03:15:59;100346.69;;;14.28;100.00
54600;BME280;40500;51.084;16.958;2023-06-26T03:18:30;100343.40;;;14.31;100.00
54600;BME280;40500;51.084;16.958;2023-06-26T03:21:00;100338.75;;;14.33;100.00
54600;BME280;40500;51.084;16.958;2023-06-26T03:23:31;100334.49;;;14.35;100.00
54600;BME280;40500;51.084;16.958;2023-06-26T03:26:02;100332.69;;;14.35;100.00
54600;BME280;40500;51.084;16.958;2023-06-26T03:28:36;100333.10;;;14.39;100.00
54600;BME280;40500;51.084;16.958;2023-06-26T03:31:06;100337.20;;;14.43;100.00
54600;BME280;40500;51.084;16.958;2023-06-26T03:33:38;100336.85;;;14.49;100.00
54600;BME280;40500;51.084;16.958;2023-06-26T03:36:09;100329.58;;;14.56;100.00
54600;BME280;40500;51.084;16.958;2023-06-26T03:38:40;100328.98;;;14.64;100.00
54600;BME280;40500;51.084;16.958;2023-06-26T03:41:11;100330.29;;;14.72;100.00
54600;BME280;40500;51.084;16.958;2023-06-26T03:43:47;100328.16;;;14.78;100.00
54600;BME280;40500;51.084;16.958;2023-06-26T03:46:23;100332.48;;;14.84;100.00
54600;BME280;40500;51.084;16.958;2023-06-26T03:48:54;100336.45;;;14.93;100.00
54600;BME280;40500;51.084;16.958;2023-06-26T03:51:24;100334.31;;;14.98;100.00
54600;BME280;40500;51.084;16.958;2023-06-26T03:53:56;100335.26;;;15.07;100.00
54600;BME280;40500;51.084;16.958;2023-06-26T03:56:26;100331.58;;;15.16;100.00
54600;BME280;40500;51.084;16.958;2023-06-26T03:58:57;100330.02;;;15.25;100.00
54600;BME280;40500;51.084;16.958;2023-06-26T04:01:31;100328.21;;;15.35;100.00
54600;BME280;40500;51.084;16.958;2023-06-26T04:04:03;100336.35;;;15.45;100.00
54600;BME280;40500;51.084;16.958;2023-06-26T04:06:36;100332.18;;;15.52;100.00
54600;BME280;40500;51.084;16.958;2023-06-26T04:09:09;100330.11;;;15.60;100.00
54600;BME280;40500;51.084;16.958;2023-06-26T04:11:42;100329.80;;;15.68;100.00
54600;BME280;40500;51.084;16.958;2023-06-26T04:14:13;100323.57;;;15.80;100.00
54600;BME280;40500;51.084;16.958;2023-06-26T04:16:43;100326.91;;;15.90;100.00
54600;BME280;40500;51.084;16.958;2023-06-26T04:19:14;100325.30;;;15.99;100.00
54600;BME280;40500;51.084;16.958;2023-06-26T04:21:45;100331.64;;;16.09;100.00
54600;BME280;40500;51.084;16.958;2023-06-26T04:24:17;100327.27;;;16.16;100.00
54600;BME280;40500;51.084;16.958;2023-06-26T04:26:48;100329.57;;;16.25;100.00
54600;BME280;40500;51.084;16.958;2023-06-26T04:29:21;100325.47;;;16.34;100.00
54600;BME280;40500;51.084;16.958;2023-06-26T04:31:54;100322.58;;;16.44;100.00
54600;BME280;40500;51.084;16.958;2023-06-26T04:34:28;100323.75;;;16.55;100.00
54600;BME280;40500;51.084;16.958;2023-06-26T04:37:01;100321.11;;;16.63;100.00
54600;BME280;40500;51.084;16.958;2023-06-26T04:39:32;100327.02;;;16.70;100.00
54600;BME280;40500;51.084;16.958;2023-06-26T04:42:06;100327.95;;;16.77;100.00
54600;BME280;40500;51.084;16.958;2023-06-26T04:44:36;100327.81;;;16.84;100.00
54600;BME280;40500;51.084;16.958;2023-06-26T04:47:08;100326.19;;;16.93;100.00
54600;BME280;40500;51.084;16.958;2023-06-26T04:49:38;100325.73;;;17.05;100.00
54600;BME280;40500;51.084;16.958;2023-06-26T04:52:15;100324.18;;;17.15;100.00
54600;BME280;40500;51.084;16.958;2023-06-26T04:54:45;100325.46;;;17.23;100.00
54600;BME280;40500;51.084;16.958;2023-06-26T04:57:16;100325.45;;;17.30;100.00
54600;BME280;40500;51.084;16.958;2023-06-26T04:59:47;100322.05;;;17.39;100.00
54600;BME280;40500;51.084;16.958;2023-06-26T05:02:17;100315.77;;;17.45;100.00
54600;BME280;40500;51.084;16.958;2023-06-26T05:04:48;100318.08;;;17.53;100.00
54600;BME280;40500;51.084;16.958;2023-06-26T05:07:18;100315.21;;;17.61;100.00
54600;BME280;40500;51.084;16.958;2023-06-26T05:09:50;100310.73;;;17.70;100.00
54600;BME280;40500;51.084;16.958;2023-06-26T05:12:20;100308.23;;;17.82;100.00
54600;BME280;40500;51.084;16.958;2023-06-26T05:14:50;100310.59;;;17.92;100.00
54600;BME280;40500;51.084;16.958;2023-06-26T05:17:21;100314.85;;;18.03;100.00
54600;BME280;40500;51.084;16.958;2023-06-26T05:19:51;100317.85;;;18.11;100.00
54600;BME280;40500;51.084;16.958;2023-06-26T05:22:22;100314.33;;;18.17;100.00
54600;BME280;40500;51.084;16.958;2023-06-26T05:24:56;100314.29;;;18.26;100.00
54600;BME280;40500;51.084;16.958;2023-06-26T05:27:30;100319.02;;;18.34;100.00
54600;BME280;40500;51.084;16.958;2023-06-26T05:30:04;100311.02;;;18.41;100.00
54600;BME280;40500;51.084;16.958;2023-06-26T05:32:37;100313.50;;;18.49;100.00
54600;BME280;40500;51.084;16.958;2023-06-26T05:35:08;100314.45;;;18.58;100.00
54600;BME280;40500;51.084;16.958;2023-06-26T05:37:39;100308.11;;;18.68;100.00
54600;BME280;40500;51.084;16.958;2023-06-26T05:40:13;100305.63;;;18.78;100.00
54600;BME280;40500;51.084;16.958;2023-06-26T05:42:47;100308.71;;;18.91;100.00
54600;BME280;40500;51.084;16.958;2023-06-26T05:45:17;100303.14;;;18.99;100.00
54600;BME280;40500;51.084;16.958;2023-06-26T05:47:49;100303.83;;;19.10;100.00
54600;BME280;40500;51.084;16.958;2023-06-26T05:50:21;100303.85;;;19.20;100.00
54600;BME280;40500;51.084;16.958;2023-06-26T05:52:53;100304.52;;;19.30;100.00
54600;BME280;40500;51.084;16.958;2023-06-26T05:55:26;100302.08;;;19.39;100.00
54600;BME280;40500;51.084;16.958;2023-06-26T05:57:59;100299.42;;;19.52;100.00
54600;BME280;40500;51.084;16.958;2023-06-26T06:00:32;100295.44;;;19.63;100.00
54600;BME280;40500;51.084;16.958;2023-06-26T06:03:02;100298.49;;;19.73;100.00
54600;BME280;40500;51.084;16.958;2023-06-26T06:05:35;100298.00;;;19.85;100.00
54600;BME280;40500;51.084;16.958;2023-06-26T06:08:05;100299.62;;;19.97;100.00
54600;BME280;40500;51.084;16.958;2023-06-26T06:10:36;100298.70;;;20.07;100.00
54600;BME280;40500;51.084;16.958;2023-06-26T06:13:07;100296.52;;;20.21;100.00
54600;BME280;40500;51.084;16.958;2023-06-26T06:15:37;100293.29;;;20.33;100.00
54600;BME280;40500;51.084;16.958;2023-06-26T06:18:08;100297.71;;;20.46;100.00
54600;BME280;40500;51.084;16.958;2023-06-26T06:20:38;100295.23;;;20.55;100.00
54600;BME280;40500;51.084;16.958;2023-06-26T06:23:09;100294.52;;;20.64;100.00
54600;BME280;40500;51.084;16.958;2023-06-26T06:25:39;100294.14;;;20.71;100.00
54600;BME280;40500;51.084;16.958;2023-06-26T06:28:11;100294.10;;;20.80;100.00
54600;BME280;40500;51.084;16.958;2023-06-26T06:30:41;100296.20;;;20.90;100.00
54600;BME280;40500;51.084;16.958;2023-06-26T06:33:14;100294.80;;;21.01;100.00
54600;BME280;40500;51.084;16.958;2023-06-26T06:35:47;100295.85;;;21.10;100.00
54600;BME280;40500;51.084;16.958;2023-06-26T06:38:22;100293.63;;;21.20;100.00
54600;BME280;40500;51.084;16.958;2023-06-26T06:40:52;100297.48;;;21.27;100.00
54600;BME280;40500;51.084;16.958;2023-06-26T06:43:23;100295.44;;;21.31;100.00
54600;BME280;40500;51.084;16.958;2023-06-26T06:45:54;100294.13;;;21.35;100.00
54600;BME280;40500;51.084;16.958;2023-06-26T06:48:24;100294.20;;;21.37;100.00
54600;BME280;40500;51.084;16.958;2023-06-26T06:50:55;100295.66;;;21.45;100.00
54600;BME280;40500;51.084;16.958;2023-06-26T06:53:26;100291.35;;;21.54;100.00
54600;BME280;40500;51.084;16.958;2023-06-26T06:55:57;100289.83;;;21.64;100.00
54600;BME280;40500;51.084;16.958;2023-06-26T06:58:28;100286.73;;;21.71;100.00
54600;BME280;40500;51.084;16.958;2023-06-26T07:01:00;100282.64;;;21.76;100.00
54600;BME280;40500;51.084;16.958;2023-06-26T07:03:32;100283.10;;;21.86;100.00
54600;BME280;40500;51.084;16.958;2023-06-26T07:06:06;100281.51;;;21.96;100.00
54600;BME280;40500;51.084;16.958;2023-06-26T07:08:36;100281.45;;;22.00;100.00
54600;BME280;40500;51.084;16.958;2023-06-26T07:11:07;100280.02;;;22.08;100.00
54600;BME280;40500;51.084;16.958;2023-06-26T07:13:37;100280.19;;;22.17;100.00
54600;BME280;40500;51.084;16.958;2023-06-26T07:16:08;100281.79;;;22.22;100.00
54600;BME280;40500;51.084;16.958;2023-06-26T07:18:41;100282.44;;;22.26;100.00
54600;BME280;40500;51.084;16.958;2023-06-26T07:21:21;100279.09;;;22.31;100.00
54600;BME280;40500;51.084;16.958;2023-06-26T07:23:59;100273.65;;;22.38;100.00
54600;BME280;40500;51.084;16.958;2023-06-26T07:26:33;100277.02;;;22.46;100.00
54600;BME280;40500;51.084;16.958;2023-06-26T07:29:15;100276.21;;;22.53;100.00
54600;BME280;40500;51.084;16.958;2023-06-26T07:31:45;100270.32;;;22.58;100.00
54600;BME280;40500;51.084;16.958;2023-06-26T07:34:17;100269.20;;;22.61;100.00
54600;BME280;40500;51.084;16.958;2023-06-26T07:36:47;100268.39;;;22.68;100.00
54600;BME280;40500;51.084;16.958;2023-06-26T07:39:18;100269.47;;;22.73;100.00
54600;BME280;40500;51.084;16.958;2023-06-26T07:41:52;100267.43;;;22.77;100.00
54600;BME280;40500;51.084;16.958;2023-06-26T07:44:22;100266.33;;;22.80;100.00
54600;BME280;40500;51.084;16.958;2023-06-26T07:46:53;100266.13;;;22.82;100.00
54600;BME280;40500;51.084;16.958;2023-06-26T07:49:25;100259.77;;;22.92;100.00
54600;BME280;40500;51.084;16.958;2023-06-26T07:51:55;100260.72;;;22.99;100.00
54600;BME280;40500;51.084;16.958;2023-06-26T07:54:26;100257.44;;;23.03;100.00
54600;BME280;40500;51.084;16.958;2023-06-26T07:56:58;100259.67;;;23.09;100.00
54600;BME280;40500;51.084;16.958;2023-06-26T07:59:30;100259.80;;;23.15;100.00
54600;BME280;40500;51.084;16.958;2023-06-26T08:02:01;100258.73;;;23.25;100.00
54600;BME280;40500;51.084;16.958;2023-06-26T08:04:36;100254.11;;;23.29;100.00
54600;BME280;40500;51.084;16.958;2023-06-26T08:07:08;100254.99;;;23.32;100.00
54600;BME280;40500;51.084;16.958;2023-06-26T08:09:39;100250.97;;;23.37;100.00
54600;BME280;40500;51.084;16.958;2023-06-26T08:12:11;100253.01;;;23.40;100.00
54600;BME280;40500;51.084;16.958;2023-06-26T08:14:41;100249.96;;;23.48;100.00
54600;BME280;40500;51.084;16.958;2023-06-26T08:17:14;100248.14;;;23.53;100.00
54600;BME280;40500;51.084;16.958;2023-06-26T08:19:45;100249.17;;;23.56;100.00
54600;BME280;40500;51.084;16.958;2023-06-26T08:22:16;100243.55;;;23.62;100.00
54600;BME280;40500;51.084;16.958;2023-06-26T08:24:47;100236.88;;;23.73;100.00
54600;BME280;40500;51.084;16.958;2023-06-26T08:27:18;100240.33;;;23.82;100.00
54600;BME280;40500;51.084;16.958;2023-06-26T08:29:48;100237.05;;;23.88;100.00
54600;BME280;40500;51.084;16.958;2023-06-26T08:32:18;100239.30;;;23.89;100.00
54600;BME280;40500;51.084;16.958;2023-06-26T08:34:51;100233.29;;;23.88;100.00
54600;BME280;40500;51.084;16.958;2023-06-26T08:37:21;100230.30;;;23.92;100.00
54600;BME280;40500;51.084;16.958;2023-06-26T08:39:59;100234.95;;;23.94;100.00
54600;BME280;40500;51.084;16.958;2023-06-26T08:42:30;100230.23;;;23.95;100.00
54600;BME280;40500;51.084;16.958;2023-06-26T08:45:00;100229.70;;;23.95;100.00
54600;BME280;40500;51.084;16.958;2023-06-26T08:47:31;100230.65;;;23.97;100.00
54600;BME280;40500;51.084;16.958;2023-06-26T08:50:10;100231.84;;;24.00;100.00
54600;BME280;40500;51.084;16.958;2023-06-26T08:52:46;100231.07;;;24.05;100.00
54600;BME280;40500;51.084;16.958;2023-06-26T08:55:23;100228.52;;;24.16;100.00
54600;BME280;40500;51.084;16.958;2023-06-26T08:57:56;100225.63;;;24.23;100.00
54600;BME280;40500;51.084;16.958;2023-06-26T09:00:28;100221.40;;;24.30;100.00
54600;BME280;40500;51.084;16.958;2023-06-26T09:03:06;100223.38;;;24.36;100.00
54600;BME280;40500;51.084;16.958;2023-06-26T09:05:39;100219.16;;;24.40;100.00
54600;BME280;40500;51.084;16.958;2023-06-26T09:08:10;100218.47;;;24.44;100.00
54600;BME280;40500;51.084;16.958;2023-06-26T09:10:42;100218.34;;;24.48;100.00
54600;BME280;40500;51.084;16.958;2023-06-26T09:13:16;100220.41;;;24.52;100.00
54600;BME280;40500;51.084;16.958;2023-06-26T09:15:59;100216.37;;;24.54;100.00
54600;BME280;40500;51.084;16.958;2023-06-26T09:18:35;100216.64;;;24.52;100.00
54600;BME280;40500;51.084;16.958;2023-06-26T09:21:10;100213.59;;;24.55;100.00
54600;BME280;40500;51.084;16.958;2023-06-26T09:23:42;100204.10;;;24.57;100.00
54600;BME280;40500;51.084;16.958;2023-06-26T09:26:13;100201.52;;;24.60;100.00
54600;BME280;40500;51.084;16.958;2023-06-26T09:28:44;100199.53;;;24.65;100.00
54600;BME280;40500;51.084;16.958;2023-06-26T09:31:16;100200.48;;;24.74;100.00
54600;BME280;40500;51.084;16.958;2023-06-26T09:34:04;100197.21;;;24.78;100.00
54600;BME280;40500;51.084;16.958;2023-06-26T09:36:35;100192.95;;;24.85;100.00
54600;BME280;40500;51.084;16.958;2023-06-26T09:39:10;100195.59;;;24.91;100.00
54600;BME280;40500;51.084;16.958;2023-06-26T09:41:46;100194.92;;;24.90;100.00
54600;BME280;40500;51.084;16.958;2023-06-26T09:44:17;100190.63;;;24.92;100.00
54600;BME280;40500;51.084;16.958;2023-06-26T09:46:50;100189.92;;;25.01;100.00
54600;BME280;40500;51.084;16.958;2023-06-26T09:49:31;100192.29;;;25.12;100.00
54600;BME280;40500;51.084;16.958;2023-06-26T09:52:03;100195.95;;;25.13;100.00
54600;BME280;40500;51.084;16.958;2023-06-26T09:54:34;100195.38;;;25.15;100.00
54600;BME280;40500;51.084;16.958;2023-06-26T09:57:11;100189.80;;;25.18;100.00
54600;BME280;40500;51.084;16.958;2023-06-26T09:59:45;100190.11;;;25.26;100.00
54600;BME280;40500;51.084;16.958;2023-06-26T10:02:16;100185.77;;;25.29;100.00
54600;BME280;40500;51.084;16.958;2023-06-26T10:04:47;100187.34;;;25.34;100.00
54600;BME280;40500;51.084;16.958;2023-06-26T10:07:17;100185.77;;;25.46;100.00
54600;BME280;40500;51.084;16.958;2023-06-26T10:09:52;100188.35;;;25.60;100.00
54600;BME280;40500;51.084;16.958;2023-06-26T10:12:29;100187.14;;;25.75;100.00
54600;BME280;40500;51.084;16.958;2023-06-26T10:14:59;100184.30;;;25.85;100.00
54600;BME280;40500;51.084;16.958;2023-06-26T10:17:38;100181.16;;;25.86;100.00
54600;BME280;40500;51.084;16.958;2023-06-26T10:20:12;100179.33;;;25.79;100.00
54600;BME280;40500;51.084;16.958;2023-06-26T10:22:46;100174.14;;;25.76;100.00
54600;BME280;40500;51.084;16.958;2023-06-26T10:25:19;100170.45;;;25.82;100.00
54600;BME280;40500;51.084;16.958;2023-06-26T10:27:56;100174.41;;;25.93;100.00
54600;BME280;40500;51.084;16.958;2023-06-26T10:30:31;100170.95;;;25.97;100.00
54600;BME280;40500;51.084;16.958;2023-06-26T10:33:04;100173.33;;;26.03;100.00
54600;BME280;40500;51.084;16.958;2023-06-26T10:35:42;100162.09;;;26.11;100.00
54600;BME280;40500;51.084;16.958;2023-06-26T10:38:16;100158.45;;;26.18;100.00
54600;BME280;40500;51.084;16.958;2023-06-26T10:40:48;100159.16;;;26.27;100.00
54600;BME280;40500;51.084;16.958;2023-06-26T10:43:33;100161.73;;;26.32;100.00
54600;BME280;40500;51.084;16.958;2023-06-26T10:46:11;100158.05;;;26.39;100.00
54600;BME280;40500;51.084;16.958;2023-06-26T10:49:01;100156.33;;;26.47;100.00
54600;BME280;40500;51.084;16.958;2023-06-26T10:51:38;100155.93;;;26.58;100.00
54600;BME280;40500;51.084;16.958;2023-06-26T10:54:19;100148.71;;;26.67;100.00
54600;BME280;40500;51.084;16.958;2023-06-26T10:56:51;100151.14;;;26.80;100.00
54600;BME280;40500;51.084;16.958;2023-06-26T10:59:27;100149.84;;;26.95;100.00
54600;BME280;40500;51.084;16.958;2023-06-26T11:01:59;100143.02;;;27.05;100.00
54600;BME280;40500;51.084;16.958;2023-06-26T11:04:43;100145.17;;;27.11;99.67
54600;BME280;40500;51.084;16.958;2023-06-26T11:07:19;100142.04;;;27.12;98.94
54600;BME280;40500;51.084;16.958;2023-06-26T11:10:00;100133.54;;;27.18;99.32
54600;BME280;40500;51.084;16.958;2023-06-26T11:12:38;100137.36;;;27.28;98.56
54600;BME280;40500;51.084;16.958;2023-06-26T11:15:12;100135.20;;;27.36;97.69
54600;BME280;40500;51.084;16.958;2023-06-26T11:17:43;100130.61;;;27.39;95.80
54600;BME280;40500;51.084;16.958;2023-06-26T11:20:15;100130.04;;;27.46;94.75
54600;BME280;40500;51.084;16.958;2023-06-26T11:22:47;100124.52;;;27.51;94.04
54600;BME280;40500;51.084;16.958;2023-06-26T11:25:22;100119.73;;;27.62;94.12
54600;BME280;40500;51.084;16.958;2023-06-26T11:27:54;100117.14;;;27.76;93.55
54600;BME280;40500;51.084;16.958;2023-06-26T11:30:27;100115.27;;;27.89;94.90
54600;BME280;40500;51.084;16.958;2023-06-26T11:33:05;100112.80;;;27.98;95.33
54600;BME280;40500;51.084;16.958;2023-06-26T11:35:41;100106.67;;;28.10;94.90
54600;BME280;40500;51.084;16.958;2023-06-26T11:38:14;100105.33;;;28.20;95.68
54600;BME280;40500;51.084;16.958;2023-06-26T11:40:49;100100.49;;;28.28;93.69
54600;BME280;40500;51.084;16.958;2023-06-26T11:43:25;100101.70;;;28.34;90.91
54600;BME280;40500;51.084;16.958;2023-06-26T11:45:58;100097.32;;;28.34;91.27
54600;BME280;40500;51.084;16.958;2023-06-26T11:48:30;100097.63;;;28.41;91.28
54600;BME280;40500;51.084;16.958;2023-06-26T11:51:05;100095.02;;;28.59;92.13
54600;BME280;40500;51.084;16.958;2023-06-26T11:53:42;100094.80;;;28.72;86.32
54600;BME280;40500;51.084;16.958;2023-06-26T11:56:16;100091.05;;;28.75;84.51
54600;BME280;40500;51.084;16.958;2023-06-26T11:59:02;100089.42;;;28.87;85.28
54600;BME280;40500;51.084;16.958;2023-06-26T12:01:42;100083.40;;;28.97;85.43
54600;BME280;40500;51.084;16.958;2023-06-26T12:04:16;100086.52;;;29.19;88.60
54600;BME280;40500;51.084;16.958;2023-06-26T12:06:50;100078.69;;;29.32;85.65
54600;BME280;40500;51.084;16.958;2023-06-26T12:09:24;100075.14;;;29.35;83.62
54600;BME280;40500;51.084;16.958;2023-06-26T12:12:11;100069.48;;;29.37;84.60
54600;BME280;40500;51.084;16.958;2023-06-26T12:14:44;100070.86;;;29.49;84.91
54600;BME280;40500;51.084;16.958;2023-06-26T12:17:15;100065.38;;;29.60;83.67
54600;BME280;40500;51.084;16.958;2023-06-26T12:19:51;100061.29;;;29.72;85.11
54600;BME280;40500;51.084;16.958;2023-06-26T12:22:23;100057.16;;;29.76;79.75
54600;BME280;40500;51.084;16.958;2023-06-26T12:24:58;100053.27;;;29.89;82.82
54600;BME280;40500;51.084;16.958;2023-06-26T12:27:29;100050.59;;;30.06;83.47
54600;BME280;40500;51.084;16.958;2023-06-26T12:29:59;100051.25;;;30.19;83.92
54600;BME280;40500;51.084;16.958;2023-06-26T12:32:35;100053.11;;;30.30;82.88
54600;BME280;40500;51.084;16.958;2023-06-26T12:35:07;100053.86;;;30.46;81.68
54600;BME280;40500;51.084;16.958;2023-06-26T12:37:39;100044.95;;;30.62;82.18
54600;BME280;40500;51.084;16.958;2023-06-26T12:40:19;100044.09;;;30.84;84.16
54600;BME280;40500;51.084;16.958;2023-06-26T12:42:52;100046.11;;;31.09;88.22
54600;BME280;40500;51.084;16.958;2023-06-26T12:45:23;100045.88;;;31.29;86.19
54600;BME280;40500;51.084;16.958;2023-06-26T12:48:09;100045.64;;;31.35;80.03
54600;BME280;40500;51.084;16.958;2023-06-26T12:50:46;100041.58;;;31.11;77.35
54600;BME280;40500;51.084;16.958;2023-06-26T12:53:17;100036.14;;;31.12;79.61
54600;BME280;40500;51.084;16.958;2023-06-26T12:55:53;100030.31;;;31.36;83.54
54600;BME280;40500;51.084;16.958;2023-06-26T12:58:24;100031.98;;;31.51;85.96